createdAt,value
2018-09-05T00:01:51.331Z,66.83
2018-09-05T00:04:19.283Z,71.17
2018-09-05T00:06:47.379Z,62.43
2018-09-05T00:09:15.345Z,67.83
2018-09-05T00:11:43.282Z,63.23
2018-09-05T00:14:11.281Z,64.50
2018-09-05T00:16:39.218Z,67.47
2018-09-05T00:19:07.222Z,64.00
2018-09-05T00:21:35.196Z,61.83
2018-09-05T00:24:03.152Z,65.67
2018-09-05T00:26:31.112Z,62.50
2018-09-05T00:28:59.068Z,58.77
2018-09-05T00:31:27.018Z,57.77
2018-09-05T00:33:54.963Z,60.60
2018-09-05T00:36:22.902Z,58.13
2018-09-05T00:38:50.861Z,59.13
2018-09-05T00:41:18.809Z,60.40
2018-09-05T00:43:46.740Z,60.37
2018-09-05T00:46:14.667Z,57.27
2018-09-05T00:48:42.644Z,60.50
2018-09-05T00:51:10.601Z,60.37
2018-09-05T00:53:38.580Z,57.83
2018-09-05T00:56:06.628Z,52.73
2018-09-05T00:58:34.556Z,56.27
2018-09-05T01:01:02.503Z,53.73
2018-09-05T01:03:30.584Z,57.20
2018-09-05T01:05:58.612Z,52.80
2018-09-05T01:08:26.592Z,55.03
2018-09-05T01:10:54.615Z,53.87
2018-09-05T01:13:22.531Z,50.93
2018-09-05T01:15:50.627Z,51.83
2018-09-05T01:18:18.575Z,49.03
2018-09-05T01:20:46.528Z,48.70
2018-09-05T01:23:14.491Z,53.73
2018-09-05T01:25:42.471Z,53.43
2018-09-05T01:28:10.431Z,53.63
2018-09-05T01:30:38.419Z,49.90
2018-09-05T01:33:06.347Z,49.17
2018-09-05T01:35:34.393Z,51.03
2018-09-05T01:38:02.372Z,51.17
2018-09-05T01:40:30.300Z,52.60
2018-09-05T01:42:58.265Z,52.20
2018-09-05T01:45:26.207Z,52.80
2018-09-05T01:47:54.156Z,46.47
2018-09-05T01:50:27.499Z,48.07
2018-09-05T01:52:55.715Z,46.20
2018-09-05T01:55:23.650Z,46.30
2018-09-05T01:57:51.579Z,46.60
2018-09-05T02:00:25.044Z,47.00
2018-09-05T02:02:52.992Z,53.40
2018-09-05T02:05:20.931Z,50.00
2018-09-05T02:07:48.881Z,51.47
2018-09-05T02:10:16.816Z,53.03
2018-09-05T02:12:44.753Z,54.63
2018-09-05T02:15:12.672Z,50.93
2018-09-05T02:17:40.620Z,53.47
2018-09-05T02:20:08.573Z,54.43
2018-09-05T02:22:36.491Z,53.47
2018-09-05T02:25:04.451Z,52.30
2018-09-05T02:27:32.384Z,55.63
2018-09-05T02:30:00.316Z,49.80
2018-09-05T02:32:28.270Z,50.77
2018-09-05T02:34:56.200Z,51.60
2018-09-05T02:37:24.145Z,53.37
2018-09-05T02:39:52.181Z,53.77
2018-09-05T02:42:20.157Z,53.43
2018-09-05T02:44:48.096Z,53.93
2018-09-05T02:47:16.050Z,49.37
2018-09-05T02:49:44.027Z,49.93
2018-09-05T02:52:11.984Z,54.60
2018-09-05T02:54:39.976Z,48.87
2018-09-05T02:57:07.916Z,52.10
2018-09-05T02:59:35.860Z,48.03
2018-09-05T03:02:03.818Z,44.40
2018-09-05T03:04:31.736Z,45.17
2018-09-05T03:06:59.684Z,43.03
2018-09-05T03:09:27.696Z,48.93
2018-09-05T03:11:55.598Z,44.80
2018-09-05T03:14:23.550Z,51.60
2018-09-05T03:16:51.567Z,46.17
2018-09-05T03:19:19.520Z,45.77
2018-09-05T03:21:47.476Z,46.87
2018-09-05T03:24:15.610Z,46.23
2018-09-05T03:26:43.544Z,45.20
2018-09-05T03:29:11.488Z,43.13
2018-09-05T03:31:39.505Z,43.13
2018-09-05T03:34:07.461Z,42.93
2018-09-05T03:36:35.415Z,44.13
2018-09-05T03:39:04.270Z,43.23
2018-09-05T03:41:32.215Z,47.63
2018-09-05T03:44:00.168Z,49.00
2018-09-05T03:46:28.151Z,49.37
2018-09-05T03:48:56.099Z,49.00
2018-09-05T03:51:24.053Z,47.37
2018-09-05T03:53:52.008Z,46.20
2018-09-05T03:56:19.996Z,47.03
2018-09-05T03:58:48.179Z,47.57
2018-09-05T04:01:16.116Z,49.40
2018-09-05T04:03:44.066Z,49.00
2018-09-05T04:06:16.084Z,48.13
2018-09-05T04:08:44.020Z,49.60
2018-09-05T04:11:11.972Z,48.97
2018-09-05T04:13:39.915Z,52.33
2018-09-05T04:16:07.848Z,51.90
2018-09-05T04:18:35.860Z,54.23
2018-09-05T04:21:03.803Z,53.07
2018-09-05T04:23:37.148Z,53.37
2018-09-05T04:26:05.100Z,48.33
2018-09-05T04:28:33.036Z,51.50
2018-09-05T04:31:01.021Z,51.47
2018-09-05T04:33:28.947Z,50.27
2018-09-05T04:35:56.884Z,50.20
2018-09-05T04:38:24.921Z,73.40
2018-09-05T04:40:52.869Z,55.27
2018-09-05T04:43:20.808Z,55.63
2018-09-05T04:45:48.764Z,54.00
2018-09-05T04:48:16.708Z,53.47
2018-09-05T04:50:44.660Z,58.17
2018-09-05T04:53:12.604Z,56.77
2018-09-05T04:55:41.599Z,55.40
2018-09-05T04:58:13.419Z,53.67
2018-09-05T05:00:41.323Z,54.70
2018-09-05T05:03:10.387Z,61.27
2018-09-05T05:05:38.451Z,60.57
2018-09-05T05:08:06.353Z,56.70
2018-09-05T05:10:34.380Z,57.10
2018-09-05T05:13:02.573Z,59.83
2018-09-05T05:15:31.685Z,66.30
2018-09-05T05:17:59.748Z,60.03
2018-09-05T05:20:27.696Z,60.73
2018-09-05T05:22:55.665Z,53.93
2018-09-05T05:25:23.712Z,56.43
2018-09-05T05:27:51.900Z,55.17
2018-09-05T05:30:19.875Z,56.83
2018-09-05T05:32:48.069Z,56.40
2018-09-05T05:35:15.932Z,56.97
2018-09-05T05:37:43.888Z,58.90
2018-09-05T05:40:11.873Z,55.83
2018-09-05T05:42:39.821Z,56.13
2018-09-05T05:45:07.831Z,59.87
2018-09-05T05:47:35.820Z,56.50
2018-09-05T05:50:04.059Z,55.83
2018-09-05T05:52:32.613Z,61.03
2018-09-05T05:55:01.154Z,58.67
2018-09-05T05:57:29.171Z,53.13
2018-09-05T05:59:57.135Z,60.83
2018-09-05T06:02:25.208Z,59.70
2018-09-05T06:04:53.157Z,59.83
2018-09-05T06:07:21.224Z,58.17
2018-09-05T06:09:49.298Z,59.00
2018-09-05T06:12:17.246Z,57.33
2018-09-05T06:14:45.189Z,52.80
2018-09-05T06:17:13.116Z,55.13
2018-09-05T06:19:41.078Z,61.77
2018-09-05T06:22:09.068Z,62.90
2018-09-05T06:24:37.032Z,63.43
2018-09-05T06:27:05.063Z,60.07
2018-09-05T06:29:33.044Z,64.53
2018-09-05T06:32:00.992Z,57.60
2018-09-05T06:34:28.952Z,59.33
2018-09-05T06:36:56.928Z,57.60
2018-09-05T06:39:25.154Z,57.80
2018-09-05T06:41:53.134Z,58.40
2018-09-05T06:44:21.084Z,53.07
2018-09-05T06:46:49.084Z,50.90
2018-09-05T06:49:17.013Z,53.53
2018-09-05T06:51:45.005Z,53.40
2018-09-05T06:54:13.003Z,53.63
2018-09-05T06:56:40.965Z,56.80
2018-09-05T06:59:08.925Z,54.77
2018-09-05T07:01:36.849Z,55.00
2018-09-05T07:04:04.815Z,53.30
2018-09-05T07:06:32.765Z,53.17
2018-09-05T07:09:00.709Z,50.73
2018-09-05T07:11:28.675Z,54.20
2018-09-05T07:13:56.644Z,52.67
2018-09-05T07:16:24.636Z,51.07
2018-09-05T07:18:52.608Z,47.77
2018-09-05T07:21:20.979Z,46.73
2018-09-05T07:23:48.883Z,48.23
2018-09-05T07:26:16.826Z,48.63
2018-09-05T07:28:44.794Z,46.03
2018-09-05T07:31:12.755Z,47.27
2018-09-05T07:33:40.713Z,46.50
2018-09-05T07:36:08.700Z,42.97
2018-09-05T07:38:36.666Z,43.10
2018-09-05T07:41:04.656Z,43.97
2018-09-05T07:43:32.607Z,45.73
2018-09-05T07:46:00.559Z,44.70
2018-09-05T07:48:28.487Z,42.67
2018-09-05T07:50:56.461Z,41.27
2018-09-05T07:53:24.401Z,43.47
2018-09-05T07:55:52.351Z,42.30
2018-09-05T07:58:20.345Z,41.00
2018-09-05T08:00:48.331Z,41.93
2018-09-05T08:03:16.267Z,44.60
2018-09-05T08:05:44.228Z,46.07
2018-09-05T08:08:12.180Z,42.70
2018-09-05T08:10:40.139Z,42.93
2018-09-05T08:13:08.106Z,40.73
2018-09-05T08:15:36.049Z,43.20
2018-09-05T08:18:04.016Z,44.67
2018-09-05T08:20:31.968Z,42.70
2018-09-05T08:23:00.028Z,42.43
2018-09-05T08:25:28.173Z,41.20
2018-09-05T08:27:56.310Z,44.30
2018-09-05T08:30:24.408Z,41.03
2018-09-05T08:32:52.449Z,39.83
2018-09-05T08:35:20.909Z,39.30
2018-09-05T08:37:48.843Z,39.27
2018-09-05T08:40:16.694Z,39.50
2018-09-05T08:42:44.718Z,38.53
2018-09-05T08:45:12.832Z,39.83
2018-09-05T08:47:40.627Z,38.63
2018-09-05T08:50:08.613Z,38.50
2018-09-05T08:52:36.618Z,37.70
2018-09-05T08:55:04.560Z,38.87
2018-09-05T08:57:32.448Z,38.47
2018-09-05T09:00:00.389Z,35.33
2018-09-05T09:02:28.328Z,35.30
2018-09-05T09:04:56.432Z,35.27
2018-09-05T09:07:24.417Z,35.17
2018-09-05T09:09:52.368Z,33.53
2018-09-05T09:12:20.602Z,33.53
2018-09-05T09:14:48.532Z,32.10
2018-09-05T09:17:16.485Z,32.53
2018-09-05T09:19:45.620Z,32.13
2018-09-05T09:22:13.749Z,31.77
2018-09-05T09:24:41.794Z,30.07
2018-09-05T09:27:10.881Z,27.23
2018-09-05T09:29:38.868Z,30.33
2018-09-05T09:32:06.917Z,28.03
2018-09-05T09:34:34.917Z,27.60
2018-09-05T09:37:02.943Z,25.57
2018-09-05T09:39:32.032Z,24.77
2018-09-05T09:42:00.122Z,24.00
2018-09-05T09:44:29.217Z,26.17
2018-09-05T09:46:57.539Z,28.03
2018-09-05T09:49:25.508Z,25.90
2018-09-05T09:51:58.812Z,25.20
2018-09-05T09:54:30.355Z,26.53
2018-09-05T09:56:58.305Z,23.23
2018-09-05T09:59:26.313Z,22.80
2018-09-05T10:01:59.638Z,21.80
2018-09-05T10:04:33.135Z,22.33
2018-09-05T10:07:06.516Z,19.47
2018-09-05T10:09:41.017Z,20.07
2018-09-05T10:12:14.313Z,20.43
2018-09-05T10:14:45.283Z,18.00
2018-09-05T10:17:18.826Z,21.27
2018-09-05T10:19:53.436Z,20.53
2018-09-05T10:22:21.533Z,18.53
2018-09-05T10:24:50.737Z,19.10
2018-09-05T10:27:18.721Z,17.30
2018-09-05T10:29:46.783Z,17.73
2018-09-05T10:32:14.820Z,17.53
2018-09-05T10:34:42.932Z,15.90
2018-09-05T10:37:11.006Z,18.93
2018-09-05T10:39:38.985Z,17.80
2018-09-05T10:42:06.927Z,17.30
2018-09-05T10:44:35.477Z,16.10
2018-09-05T10:47:04.544Z,19.43
2018-09-05T10:49:32.588Z,18.00
2018-09-05T10:52:04.392Z,17.03
2018-09-05T10:54:33.341Z,16.30
2018-09-05T10:57:02.392Z,16.83
2018-09-05T10:59:32.406Z,16.20
2018-09-05T11:02:01.137Z,17.00
2018-09-05T11:04:29.083Z,17.93
2018-09-05T11:06:57.608Z,15.83
2018-09-05T11:09:26.522Z,16.13
2018-09-05T11:11:54.573Z,15.10
2018-09-05T11:14:23.348Z,15.70
2018-09-05T11:16:51.321Z,15.77
2018-09-05T11:19:19.279Z,14.67
2018-09-05T11:21:47.204Z,15.70
2018-09-05T11:24:15.232Z,15.57
2018-09-05T11:26:43.252Z,15.50
2018-09-05T11:29:11.550Z,14.77
2018-09-05T11:31:40.099Z,15.07
2018-09-05T11:34:08.219Z,16.67
2018-09-05T11:36:36.299Z,15.53
2018-09-05T11:39:06.632Z,15.13
2018-09-05T11:41:34.596Z,16.43
2018-09-05T11:44:02.575Z,16.63
2018-09-05T11:46:31.473Z,16.20
2018-09-05T11:48:59.439Z,15.07
2018-09-05T11:51:27.405Z,15.47
2018-09-05T11:53:55.392Z,16.30
2018-09-05T11:56:23.362Z,16.37
2018-09-05T11:58:51.340Z,13.43
2018-09-05T12:01:19.321Z,14.00
2018-09-05T12:03:47.400Z,14.57
2018-09-05T12:06:15.395Z,13.10
2018-09-05T12:08:43.353Z,14.77
2018-09-05T12:11:11.320Z,11.60
2018-09-05T12:13:39.284Z,11.70
2018-09-05T12:16:07.247Z,12.10
2018-09-05T12:18:35.261Z,12.20
2018-09-05T12:21:03.221Z,11.40
2018-09-05T12:23:31.166Z,12.83
2018-09-05T12:25:59.203Z,11.17
2018-09-05T12:28:27.156Z,11.30
2018-09-05T12:30:55.143Z,10.13
2018-09-05T12:33:23.137Z,11.87
2018-09-05T12:35:54.189Z,12.60
2018-09-05T12:38:22.350Z,12.43
2018-09-05T12:40:50.277Z,13.40
2018-09-05T12:43:18.243Z,11.83
2018-09-05T12:45:46.201Z,11.60
2018-09-05T12:48:14.222Z,12.10
2018-09-05T12:50:42.181Z,13.10
2018-09-05T12:53:10.342Z,12.57
2018-09-05T12:55:38.423Z,11.60
2018-09-05T12:58:06.460Z,10.83
2018-09-05T13:00:34.444Z,10.37
2018-09-05T13:03:02.420Z,10.60
2018-09-05T13:05:30.390Z,10.27
2018-09-05T13:07:58.362Z,10.30
2018-09-05T13:10:26.433Z,10.27
2018-09-05T13:12:54.404Z,10.73
2018-09-05T13:15:23.682Z,10.33
2018-09-05T13:17:51.707Z,10.03
2018-09-05T13:20:19.723Z,10.37
2018-09-05T13:22:47.818Z,9.90
2018-09-05T13:25:15.752Z,10.63
2018-09-05T13:27:43.893Z,10.00
2018-09-05T13:30:11.896Z,9.93
2018-09-05T13:32:39.953Z,9.30
2018-09-05T13:35:08.328Z,10.27
2018-09-05T13:37:36.300Z,10.40
2018-09-05T13:40:04.295Z,9.43
2018-09-05T13:42:32.284Z,9.20
2018-09-05T13:45:00.287Z,9.67
2018-09-05T13:47:28.289Z,8.17
2018-09-05T13:49:56.637Z,8.70
2018-09-05T13:52:24.979Z,8.97
2018-09-05T13:54:53.208Z,8.67
2018-09-05T13:57:21.457Z,9.27
2018-09-05T13:59:56.208Z,8.87
2018-09-05T14:02:24.356Z,8.70
2018-09-05T14:04:53.894Z,8.33
2018-09-05T14:07:23.514Z,7.87
2018-09-05T14:10:02.809Z,8.63
2018-09-05T14:12:30.829Z,8.57
2018-09-05T14:14:58.844Z,8.93
2018-09-05T14:17:26.817Z,8.53
2018-09-05T14:19:54.870Z,8.27
2018-09-05T14:22:23.888Z,7.97
2018-09-05T14:24:52.284Z,8.20
2018-09-05T14:27:23.579Z,7.43
2018-09-05T14:29:51.472Z,7.67
2018-09-05T14:32:19.512Z,7.33
2018-09-05T14:34:48.276Z,8.07
2018-09-05T14:37:16.372Z,7.97
2018-09-05T14:39:44.323Z,7.90
2018-09-05T14:42:12.420Z,7.40
2018-09-05T14:44:45.481Z,8.30
2018-09-05T14:47:13.936Z,7.23
2018-09-05T14:49:41.975Z,7.20
2018-09-05T14:52:11.000Z,8.47
2018-09-05T14:54:39.164Z,7.80
2018-09-05T14:57:07.192Z,7.43
2018-09-05T14:59:36.101Z,7.03
2018-09-05T15:02:04.109Z,7.00
2018-09-05T15:04:32.129Z,8.07
2018-09-05T15:07:00.106Z,7.60
2018-09-05T15:09:29.188Z,6.93
2018-09-05T15:11:57.282Z,7.77
2018-09-05T15:14:25.337Z,7.07
2018-09-05T15:16:53.366Z,7.13
2018-09-05T15:19:21.408Z,6.87
2018-09-05T15:21:49.405Z,7.47
2018-09-05T15:24:17.458Z,7.40
2018-09-05T15:26:45.467Z,7.67
2018-09-05T15:29:14.549Z,6.97
2018-09-05T15:31:42.541Z,7.30
2018-09-05T15:34:12.577Z,7.43
2018-09-05T15:36:40.673Z,7.97
2018-09-05T15:39:09.110Z,8.07
2018-09-05T15:41:37.183Z,7.03
2018-09-05T15:44:05.288Z,6.83
2018-09-05T15:46:33.428Z,7.50
2018-09-05T15:49:01.420Z,7.03
2018-09-05T15:51:29.538Z,7.10
2018-09-05T15:53:57.668Z,7.00
2018-09-05T15:56:25.683Z,7.40
2018-09-05T15:58:53.729Z,6.53
2018-09-05T16:01:21.913Z,6.80
2018-09-05T16:03:49.986Z,6.57
2018-09-05T16:06:18.037Z,7.23
2018-09-05T16:08:46.026Z,6.50
2018-09-05T16:11:14.142Z,6.63
2018-09-05T16:13:42.227Z,6.70
2018-09-05T16:16:10.276Z,6.90
2018-09-05T16:18:41.486Z,6.47
2018-09-05T16:21:09.576Z,6.23
2018-09-05T16:23:37.634Z,6.60
2018-09-05T16:26:05.776Z,6.50
2018-09-05T16:28:33.849Z,6.50
2018-09-05T16:31:01.942Z,5.93
2018-09-05T16:33:29.953Z,5.93
2018-09-05T16:36:04.482Z,5.70
2018-09-05T16:38:32.528Z,5.97
2018-09-05T16:41:00.600Z,5.97
2018-09-05T16:43:28.680Z,5.80
2018-09-05T16:45:56.737Z,5.80
2018-09-05T16:48:24.940Z,5.73
2018-09-05T16:50:58.625Z,5.93
2018-09-05T16:53:32.311Z,6.60
2018-09-05T16:58:53.496Z,5.50
2018-09-05T17:01:21.503Z,5.63
2018-09-05T17:03:49.590Z,6.13
2018-09-05T17:06:17.605Z,5.83
2018-09-05T17:08:49.863Z,6.57
2018-09-05T17:11:17.913Z,6.47
2018-09-05T17:13:45.972Z,6.80
2018-09-05T17:16:16.076Z,5.30
2018-09-05T17:18:44.095Z,5.40
2018-09-05T17:21:15.034Z,6.10
2018-09-05T17:23:43.701Z,5.67
2018-09-05T17:26:12.148Z,5.63
2018-09-05T17:28:40.162Z,5.50
2018-09-05T17:31:09.875Z,6.20
2018-09-05T17:33:37.910Z,5.60
2018-09-05T17:36:05.907Z,6.17
2018-09-05T17:38:34.929Z,5.53
2018-09-05T17:41:08.423Z,5.50
2018-09-05T17:43:36.430Z,5.13
2018-09-05T17:46:04.472Z,6.00
2018-09-05T17:48:32.444Z,5.73
2018-09-05T17:51:00.566Z,5.03
2018-09-05T17:53:28.574Z,5.57
2018-09-05T17:55:56.548Z,5.47
2018-09-05T17:58:25.709Z,5.70
2018-09-05T18:01:01.777Z,5.80
2018-09-05T18:03:29.768Z,5.07
2018-09-05T18:05:57.757Z,5.33
2018-09-05T18:08:25.821Z,5.60
2018-09-05T18:10:54.882Z,5.50
2018-09-05T18:13:22.938Z,5.97
2018-09-05T18:15:50.966Z,5.90
2018-09-05T18:18:19.056Z,5.47
2018-09-05T18:20:47.036Z,5.77
2018-09-05T18:23:15.010Z,5.43
2018-09-05T18:25:43.165Z,5.87
2018-09-05T18:28:11.200Z,5.30
2018-09-05T18:30:39.426Z,5.53
2018-09-05T18:33:07.509Z,5.43
2018-09-05T18:35:37.602Z,4.87
2018-09-05T18:38:07.611Z,6.10
2018-09-05T18:40:35.605Z,5.73
2018-09-05T18:43:03.709Z,5.60
2018-09-05T18:45:31.795Z,5.27
2018-09-05T18:48:14.052Z,6.07
2018-09-05T18:50:42.161Z,5.27
2018-09-05T18:53:10.706Z,6.23
2018-09-05T18:55:39.462Z,5.83
2018-09-05T18:58:07.460Z,6.17
2018-09-05T19:00:40.996Z,6.07
2018-09-05T19:03:09.871Z,5.77
2018-09-05T19:05:37.902Z,6.17
2018-09-05T19:08:06.088Z,5.93
2018-09-05T19:10:39.776Z,6.40
2018-09-05T19:15:54.117Z,5.80
2018-09-05T19:18:22.200Z,6.33
2018-09-05T19:20:50.238Z,6.53
2018-09-05T19:23:18.482Z,5.93
2018-09-05T19:25:46.553Z,6.27
2018-09-05T19:28:15.617Z,6.07
2018-09-05T19:30:43.713Z,6.37
2018-09-05T19:33:11.992Z,6.30
2018-09-05T19:35:40.019Z,6.60
2018-09-05T19:38:08.018Z,6.27
2018-09-05T19:40:36.062Z,6.17
2018-09-05T19:43:05.282Z,6.53
2018-09-05T19:45:35.386Z,6.20
2018-09-05T19:48:10.178Z,7.03
2018-09-05T19:50:38.341Z,6.53
2018-09-05T19:53:06.339Z,7.10
2018-09-05T19:55:34.322Z,6.67
2018-09-05T19:58:09.145Z,6.23
2018-09-05T20:00:42.469Z,6.60
2018-09-05T20:03:11.541Z,6.13
2018-09-05T20:05:40.193Z,6.77
2018-09-05T20:08:08.207Z,6.03
2018-09-05T20:10:36.201Z,6.60
2018-09-05T20:13:05.918Z,7.03
2018-09-05T20:15:34.000Z,7.03
2018-09-05T20:18:01.975Z,7.07
2018-09-05T20:20:29.985Z,7.00
2018-09-05T20:22:57.988Z,6.70
2018-09-05T20:25:26.002Z,6.70
2018-09-05T20:27:54.032Z,6.97
2018-09-05T20:30:22.122Z,7.00
2018-09-05T20:32:50.290Z,7.03
2018-09-05T20:35:18.276Z,6.67
2018-09-05T20:37:46.261Z,6.33
2018-09-05T20:40:14.282Z,7.97
2018-09-05T20:42:42.316Z,6.80
2018-09-05T20:45:10.294Z,6.67
2018-09-05T20:47:38.497Z,7.53
2018-09-05T20:50:06.433Z,6.23
2018-09-05T20:52:34.442Z,6.13
2018-09-05T20:55:02.450Z,7.00
2018-09-05T20:57:30.565Z,6.67
2018-09-05T20:59:58.569Z,6.27
2018-09-05T21:02:26.561Z,6.80
2018-09-05T21:04:54.646Z,6.93
2018-09-05T21:07:22.752Z,6.70
2018-09-05T21:09:50.854Z,6.47
2018-09-05T21:12:18.901Z,6.90
2018-09-05T21:14:46.921Z,6.60
2018-09-05T21:17:14.933Z,7.00
2018-09-05T21:19:53.248Z,7.07
2018-09-05T21:22:21.358Z,6.70
2018-09-05T21:24:49.337Z,6.80
2018-09-05T21:27:17.397Z,6.20
2018-09-05T21:29:45.548Z,6.67
2018-09-05T21:32:13.572Z,6.03
2018-09-05T21:34:44.421Z,6.80
2018-09-05T21:40:00.135Z,6.30
2018-09-05T21:42:28.179Z,6.47
2018-09-05T21:44:56.161Z,6.33
2018-09-05T21:47:26.168Z,6.30
2018-09-05T21:49:54.197Z,7.30
2018-09-05T21:52:22.277Z,5.80
2018-09-05T21:54:50.309Z,6.23
2018-09-05T21:57:19.245Z,7.20
2018-09-05T21:59:48.284Z,6.60
2018-09-05T22:02:16.322Z,6.07
2018-09-05T22:04:44.388Z,6.50
2018-09-05T22:07:12.386Z,6.90
2018-09-05T22:09:40.385Z,6.47
2018-09-05T22:12:08.391Z,7.50
2018-09-05T22:14:36.442Z,7.70
2018-09-05T22:17:06.733Z,7.00
2018-09-05T22:19:34.797Z,7.70
2018-09-05T22:22:02.827Z,7.20
2018-09-05T22:24:30.957Z,7.77
2018-09-05T22:26:58.946Z,8.13
2018-09-05T22:29:27.154Z,7.27
2018-09-05T22:31:55.429Z,8.00
2018-09-05T22:34:23.450Z,7.20
2018-09-05T22:36:51.472Z,6.97
2018-09-05T22:39:19.470Z,8.17
2018-09-05T22:41:47.486Z,7.93
2018-09-05T22:44:20.914Z,6.73
2018-09-05T22:46:54.537Z,7.50
2018-09-05T22:49:58.657Z,7.40
2018-09-05T22:54:39.582Z,7.70
2018-09-05T22:57:19.855Z,7.20
2018-09-05T22:59:57.923Z,7.60
2018-09-05T23:02:40.830Z,7.00
2018-09-05T23:05:14.335Z,7.30
2018-09-05T23:08:46.516Z,7.40
2018-09-05T23:11:20.847Z,7.10
2018-09-05T23:13:54.419Z,7.80
2018-09-05T23:16:28.005Z,7.07
2018-09-05T23:19:16.552Z,7.13
2018-09-05T23:21:44.584Z,7.03
2018-09-05T23:24:12.642Z,7.10
2018-09-05T23:26:40.752Z,7.27
2018-09-05T23:29:08.819Z,7.30
2018-09-05T23:31:36.837Z,6.50
2018-09-05T23:34:09.810Z,7.20
2018-09-05T23:36:37.817Z,6.90
2018-09-05T23:39:06.700Z,7.80
2018-09-05T23:41:34.750Z,7.97
2018-09-05T23:44:02.765Z,7.77
2018-09-05T23:46:30.812Z,7.50
2018-09-05T23:48:58.821Z,7.50
2018-09-05T23:51:26.846Z,7.93
2018-09-05T23:53:54.872Z,7.83
2018-09-05T23:56:22.969Z,8.43
2018-09-05T23:58:51.025Z,7.67
